createdAt,value
2022-09-10T00:00:43.465Z,100348.38
2022-09-10T00:03:10.770Z,100341.88
2022-09-10T00:05:42.042Z,100344.09
2022-09-10T00:08:09.422Z,100348.88
2022-09-10T00:10:40.013Z,100315.31
2022-09-10T00:13:07.546Z,100343.41
2022-09-10T00:15:47.963Z,100310.66
2022-09-10T00:18:16.058Z,100333.16
2022-09-10T00:20:43.796Z,100347.31
2022-09-10T00:23:11.114Z,100342.56
2022-09-10T00:25:38.892Z,100346.13
2022-09-10T00:28:05.379Z,100334.31
2022-09-10T00:30:31.893Z,100327.59
2022-09-10T00:32:58.205Z,100345.00
2022-09-10T00:35:24.503Z,100339.47
2022-09-10T00:37:51.176Z,100323.44
2022-09-10T00:40:17.674Z,100340.34
2022-09-10T00:42:43.988Z,100336.66
2022-09-10T00:45:28.169Z,100346.22
2022-09-10T00:48:00.009Z,100326.88
2022-09-10T00:50:37.896Z,100332.44
2022-09-10T00:53:08.577Z,100331.03
2022-09-10T00:55:38.485Z,100344.94
2022-09-10T00:58:07.060Z,100319.69
2022-09-10T01:00:33.834Z,100333.34
2022-09-10T01:03:01.987Z,100333.84
2022-09-10T01:05:29.524Z,100313.53
2022-09-10T01:07:57.927Z,100284.69
2022-09-10T01:10:28.787Z,100299.97
2022-09-10T01:13:13.717Z,100315.84
2022-09-10T01:16:16.691Z,100323.94
2022-09-10T01:19:07.303Z,100326.84
2022-09-10T01:21:36.961Z,100329.06
2022-09-10T01:24:12.590Z,100318.66
2022-09-10T01:27:09.827Z,100333.88
2022-09-10T01:29:44.759Z,100302.78
2022-09-10T01:32:20.603Z,100319.41
2022-09-10T01:35:05.769Z,100331.97
2022-09-10T01:37:37.481Z,100338.03
2022-09-10T01:40:05.058Z,100328.91
2022-09-10T01:42:32.756Z,100329.84
2022-09-10T01:44:59.775Z,100333.00
2022-09-10T01:47:29.040Z,100329.41
2022-09-10T01:50:08.783Z,100335.41
2022-09-10T01:53:05.029Z,100341.03
2022-09-10T01:55:59.902Z,100338.13
2022-09-10T01:58:34.516Z,100338.66
2022-09-10T02:01:12.926Z,100336.78
2022-09-10T02:03:41.826Z,100310.81
2022-09-10T02:06:13.145Z,100330.16
2022-09-10T02:08:42.897Z,100325.91
2022-09-10T02:11:11.695Z,100317.81
2022-09-10T02:13:38.758Z,100312.69
2022-09-10T02:16:09.312Z,100331.72
2022-09-10T02:18:38.481Z,100335.41
2022-09-10T02:21:06.190Z,100329.56
2022-09-10T02:23:39.931Z,100315.94
2022-09-10T02:26:06.592Z,100326.19
2022-09-10T02:28:33.252Z,100306.13
2022-09-10T02:30:59.626Z,100300.91
2022-09-10T02:33:26.042Z,100294.16
2022-09-10T02:35:53.724Z,100311.56
2022-09-10T02:38:21.330Z,100285.63
2022-09-10T02:40:51.264Z,100316.91
2022-09-10T02:43:17.810Z,100320.69
2022-09-10T02:45:44.874Z,100301.94
2022-09-10T02:48:11.273Z,100314.72
2022-09-10T02:50:37.632Z,100308.22
2022-09-10T02:53:03.945Z,100321.41
2022-09-10T02:55:31.315Z,100305.50
2022-09-10T02:57:58.325Z,100326.25
2022-09-10T03:00:24.898Z,100284.19
2022-09-10T03:02:51.245Z,100315.75
2022-09-10T03:05:17.785Z,100319.50
2022-09-10T03:07:44.751Z,100296.31
2022-09-10T03:10:11.152Z,100328.06
2022-09-10T03:12:38.030Z,100304.03
2022-09-10T03:15:05.017Z,100328.91
2022-09-10T03:17:32.162Z,100306.28
2022-09-10T03:19:58.472Z,100327.03
2022-09-10T03:22:24.779Z,100312.19
2022-09-10T03:24:51.062Z,100311.03
2022-09-10T03:27:18.002Z,100310.66
2022-09-10T03:29:45.162Z,100327.38
2022-09-10T03:32:11.524Z,100325.81
2022-09-10T03:34:37.855Z,100308.59
2022-09-10T03:37:04.296Z,100310.81
2022-09-10T03:39:30.626Z,100299.91
2022-09-10T03:41:58.392Z,100309.44
2022-09-10T03:44:25.252Z,100322.78
2022-09-10T03:46:51.918Z,100315.78
2022-09-10T03:49:18.360Z,100328.72
2022-09-10T03:51:44.659Z,100313.69
2022-09-10T03:54:10.978Z,100325.06
2022-09-10T03:56:37.330Z,100316.53
2022-09-10T03:59:03.644Z,100301.59
2022-09-10T04:01:30.008Z,100315.06
2022-09-10T04:03:57.413Z,100270.34
2022-09-10T04:06:23.953Z,100304.47
2022-09-10T04:08:52.661Z,100300.56
2022-09-10T04:11:19.617Z,100327.47
2022-09-10T04:13:49.003Z,100297.31
2022-09-10T04:16:18.825Z,100307.06
2022-09-10T04:18:45.471Z,100328.63
2022-09-10T04:21:12.113Z,100313.19
2022-09-10T04:23:41.089Z,100300.41
2022-09-10T04:26:15.673Z,100313.69
2022-09-10T04:28:41.979Z,100296.19
2022-09-10T04:31:08.517Z,100324.13
2022-09-10T04:33:34.936Z,100325.47
2022-09-10T04:36:01.700Z,100308.34
2022-09-10T04:38:30.298Z,100321.22
2022-09-10T04:40:57.850Z,100297.41
2022-09-10T04:43:25.585Z,100317.97
2022-09-10T04:45:53.083Z,100309.34
2022-09-10T04:48:19.485Z,100309.72
2022-09-10T04:51:05.356Z,100326.59
2022-09-10T04:53:32.309Z,100310.28
2022-09-10T04:55:58.924Z,100312.25
2022-09-10T04:58:25.260Z,100315.84
2022-09-10T05:00:51.834Z,100324.97
2022-09-10T05:03:18.486Z,100340.34
2022-09-10T05:05:47.868Z,100335.81
2022-09-10T05:08:14.364Z,100319.59
2022-09-10T05:10:41.231Z,100314.72
2022-09-10T05:13:08.104Z,100332.06
2022-09-10T05:15:35.710Z,100334.69
2022-09-10T05:18:02.091Z,100326.59
2022-09-10T05:20:28.474Z,100327.38
2022-09-10T05:22:55.089Z,100338.97
2022-09-10T05:25:21.685Z,100326.16
2022-09-10T05:27:49.178Z,100313.03
2022-09-10T05:30:15.501Z,100347.25
2022-09-10T05:32:41.808Z,100327.88
2022-09-10T05:35:08.671Z,100333.16
2022-09-10T05:37:34.990Z,100337.88
2022-09-10T05:40:06.492Z,100337.59
2022-09-10T05:42:33.042Z,100335.41
2022-09-10T05:44:59.471Z,100330.94
2022-09-10T05:47:25.768Z,100328.22
2022-09-10T05:49:52.095Z,100306.47
2022-09-10T05:52:18.400Z,100348.38
2022-09-10T05:54:44.708Z,100354.94
2022-09-10T05:57:11.431Z,100335.41
2022-09-10T05:59:37.818Z,100344.44
2022-09-10T06:02:04.210Z,100336.66
2022-09-10T06:04:30.606Z,100341.03
2022-09-10T06:06:56.921Z,100347.00
2022-09-10T06:09:23.329Z,100349.81
2022-09-10T06:11:49.872Z,100361.16
2022-09-10T06:14:16.804Z,100320.53
2022-09-10T06:16:43.253Z,100345.28
2022-09-10T06:19:09.748Z,100361.69
2022-09-10T06:21:36.164Z,100308.88
2022-09-10T06:24:02.591Z,100363.19
2022-09-10T06:26:28.900Z,100368.53
2022-09-10T06:28:56.701Z,100340.00
2022-09-10T06:31:23.236Z,100336.22
2022-09-10T06:33:49.534Z,100367.66
2022-09-10T06:36:16.209Z,100362.72
2022-09-10T06:38:44.887Z,100369.72
2022-09-10T06:41:13.435Z,100383.56
2022-09-10T06:43:41.462Z,100385.59
2022-09-10T06:46:26.849Z,100384.03
2022-09-10T06:49:00.761Z,100357.06
2022-09-10T06:51:27.155Z,100358.59
2022-09-10T06:53:53.451Z,100398.66
2022-09-10T06:56:19.770Z,100375.59
2022-09-10T06:58:46.388Z,100374.00
2022-09-10T07:01:15.564Z,100401.81
2022-09-10T07:03:43.388Z,100396.63
2022-09-10T07:06:13.236Z,100376.28
2022-09-10T07:08:40.024Z,100375.16
2022-09-10T07:11:11.195Z,100397.13
2022-09-10T07:13:37.764Z,100376.72
2022-09-10T07:16:04.371Z,100401.81
2022-09-10T07:18:30.949Z,100390.88
2022-09-10T07:21:11.526Z,100402.69
2022-09-10T07:23:40.969Z,100410.03
2022-09-10T07:26:16.031Z,100405.22
2022-09-10T07:28:42.929Z,100389.00
2022-09-10T07:31:24.022Z,100397.22
2022-09-10T07:33:51.024Z,100390.38
2022-09-10T07:36:18.215Z,100388.50
2022-09-10T07:38:45.113Z,100413.13
2022-09-10T07:41:13.931Z,100410.81
2022-09-10T07:43:41.859Z,100365.97
2022-09-10T07:46:12.423Z,100399.78
2022-09-10T07:48:40.250Z,100390.56
2022-09-10T07:51:08.660Z,100401.31
2022-09-10T07:53:35.656Z,100354.69
2022-09-10T07:56:04.945Z,100397.06
2022-09-10T07:58:33.170Z,100397.06
2022-09-10T08:00:59.987Z,100375.09
2022-09-10T08:03:31.822Z,100308.75
2022-09-10T08:06:02.403Z,100382.88
2022-09-10T08:08:34.024Z,100401.84
2022-09-10T08:11:17.876Z,100382.34
2022-09-10T08:13:46.807Z,100403.19
2022-09-10T08:16:16.933Z,100381.22
2022-09-10T08:18:43.827Z,100395.31
2022-09-10T08:21:10.728Z,100399.22
2022-09-10T08:23:39.424Z,100405.19
2022-09-10T08:26:08.331Z,100409.81
2022-09-10T08:28:35.384Z,100396.88
2022-09-10T08:31:09.695Z,100408.25
2022-09-10T08:33:36.741Z,100401.38
2022-09-10T08:36:04.670Z,100397.91
2022-09-10T08:38:36.670Z,100414.47
2022-09-10T08:41:09.202Z,100331.00
2022-09-10T08:43:43.790Z,100418.44
2022-09-10T08:46:22.496Z,100405.47
2022-09-10T08:48:55.155Z,100412.28
2022-09-10T08:51:29.929Z,100380.59
2022-09-10T08:54:10.089Z,100393.66
2022-09-10T08:56:37.346Z,100418.22
2022-09-10T08:59:21.792Z,100414.81
2022-09-10T09:02:00.959Z,100396.63
2022-09-10T09:04:58.407Z,100405.94
2022-09-10T09:07:31.071Z,100413.53
2022-09-10T09:09:57.396Z,100405.44
2022-09-10T09:12:36.957Z,100421.16
2022-09-10T09:15:18.137Z,100422.47
2022-09-10T09:18:15.427Z,100393.78
2022-09-10T09:20:46.975Z,100421.94
2022-09-10T09:23:21.934Z,100436.78
2022-09-10T09:25:57.534Z,100429.78
2022-09-10T09:28:43.701Z,100410.25
2022-09-10T09:31:17.763Z,100413.38
2022-09-10T09:33:46.471Z,100423.78
2022-09-10T09:36:18.910Z,100401.53
2022-09-10T09:38:48.901Z,100348.97
2022-09-10T09:41:24.764Z,100370.00
2022-09-10T09:44:16.271Z,100418.69
2022-09-10T09:46:42.654Z,100412.63
2022-09-10T09:49:16.881Z,100420.38
2022-09-10T09:51:48.473Z,100421.16
2022-09-10T09:54:56.525Z,100418.03
2022-09-10T09:57:15.593Z,100420.22
2022-09-10T09:59:41.925Z,100367.38
2022-09-10T10:02:15.284Z,100436.09
2022-09-10T10:04:54.575Z,100416.31
2022-09-10T10:07:31.586Z,100430.97
2022-09-10T10:10:01.005Z,100428.78
2022-09-10T10:12:32.871Z,100406.38
2022-09-10T10:15:00.867Z,100423.13
2022-09-10T10:17:37.251Z,100430.13
2022-09-10T10:20:12.943Z,100419.34
2022-09-10T10:22:41.330Z,100433.78
2022-09-10T10:25:38.125Z,100426.91
2022-09-10T10:28:15.478Z,100412.53
2022-09-10T10:30:42.187Z,100404.03
2022-09-10T10:33:17.969Z,100433.03
2022-09-10T10:35:58.493Z,100439.53
2022-09-10T10:38:40.578Z,100443.50
2022-09-10T10:41:39.360Z,100442.50
2022-09-10T10:44:26.447Z,100415.97
2022-09-10T10:47:29.822Z,100455.47
2022-09-10T10:50:21.256Z,100424.50
2022-09-10T10:53:06.255Z,100453.28
2022-09-10T10:55:44.199Z,100458.66
2022-09-10T10:58:16.696Z,100460.28
2022-09-10T11:00:49.618Z,100462.31
2022-09-10T11:03:25.221Z,100434.13
2022-09-10T11:06:00.790Z,100442.84
2022-09-10T11:08:38.925Z,100449.38
2022-09-10T11:11:13.829Z,100424.38
2022-09-10T11:13:47.112Z,100401.41
2022-09-10T11:16:26.803Z,100463.88
2022-09-10T11:19:03.004Z,100445.22
2022-09-10T11:21:45.234Z,100455.19
2022-09-10T11:24:18.684Z,100447.50
2022-09-10T11:26:51.071Z,100444.50
2022-09-10T11:29:33.815Z,100445.25
2022-09-10T11:32:45.359Z,100461.00
2022-09-10T11:35:27.874Z,100456.88
2022-09-10T11:38:20.598Z,100449.69
2022-09-10T11:40:56.142Z,100445.41
2022-09-10T11:43:42.192Z,100451.38
2022-09-10T11:46:15.473Z,100461.31
2022-09-10T11:49:03.522Z,100462.59
2022-09-10T11:51:36.838Z,100460.00
2022-09-10T11:54:07.199Z,100447.81
2022-09-10T11:57:09.819Z,100463.22
2022-09-10T12:00:03.587Z,100469.19
2022-09-10T12:02:43.131Z,100452.78
2022-09-10T12:05:09.362Z,100445.97
2022-09-10T12:08:04.659Z,100446.53
2022-09-10T12:10:57.262Z,100475.66
2022-09-10T12:13:23.721Z,100439.34
2022-09-10T12:15:55.974Z,100443.53
2022-09-10T12:18:27.945Z,100450.63
2022-09-10T12:20:57.837Z,100462.97
2022-09-10T12:23:29.182Z,100432.50
2022-09-10T12:26:19.595Z,100454.59
2022-09-10T12:28:46.000Z,100462.78
2022-09-10T12:31:15.171Z,100439.34
2022-09-10T12:33:44.367Z,100467.53
2022-09-10T12:36:35.298Z,100457.66
2022-09-10T12:39:22.169Z,100473.22
2022-09-10T12:41:49.657Z,100472.13
2022-09-10T12:44:25.217Z,100465.66
2022-09-10T12:47:23.609Z,100472.50
2022-09-10T12:49:58.428Z,100461.16
2022-09-10T12:53:06.786Z,100457.56
2022-09-10T12:55:42.721Z,100460.03
2022-09-10T12:58:25.553Z,100435.88
2022-09-10T13:00:54.685Z,100461.56
2022-09-10T13:03:24.130Z,100440.31
2022-09-10T13:05:54.150Z,100454.97
2022-09-10T13:08:29.488Z,100461.00
2022-09-10T13:10:57.230Z,100466.91
2022-09-10T13:13:56.341Z,100464.25
2022-09-10T13:16:28.802Z,100453.59
2022-09-10T13:19:21.708Z,100435.88
2022-09-10T13:21:48.172Z,100450.13
2022-09-10T13:24:33.981Z,100451.09
2022-09-10T13:27:12.574Z,100454.81
2022-09-10T13:29:44.598Z,100465.06
2022-09-10T13:32:20.313Z,100448.34
2022-09-10T13:35:10.537Z,100439.50
2022-09-10T13:38:02.148Z,100439.81
2022-09-10T13:40:50.886Z,100451.56
2022-09-10T13:43:52.492Z,100453.78
2022-09-10T13:46:31.093Z,100445.56
2022-09-10T13:49:09.785Z,100462.31
2022-09-10T13:51:51.960Z,100451.09
2022-09-10T13:54:34.300Z,100377.91
2022-09-10T13:57:13.155Z,100399.16
2022-09-10T13:59:41.666Z,100386.00
2022-09-10T14:02:08.299Z,100456.53
2022-09-10T14:04:45.075Z,100442.78
2022-09-10T14:07:20.260Z,100432.69
2022-09-10T14:09:54.595Z,100409.09
2022-09-10T14:12:23.335Z,100446.31
2022-09-10T14:14:57.076Z,100447.16
2022-09-10T14:17:29.122Z,100428.28
2022-09-10T14:20:01.441Z,100480.31
2022-09-10T14:22:29.600Z,100451.31
2022-09-10T14:25:01.516Z,100443.50
2022-09-10T14:27:31.304Z,100483.94
2022-09-10T14:30:21.214Z,100483.00
2022-09-10T14:32:47.722Z,100482.44
2022-09-10T14:35:40.290Z,100494.50
2022-09-10T14:38:24.827Z,100502.38
2022-09-10T14:40:58.291Z,100488.25
2022-09-10T14:43:29.392Z,100511.09
2022-09-10T14:45:56.007Z,100472.63
2022-09-10T14:48:38.979Z,100488.16
2022-09-10T14:51:14.631Z,100515.69
2022-09-10T14:53:42.272Z,100501.97
2022-09-10T14:56:22.213Z,100514.81
2022-09-10T14:59:01.475Z,100484.47
2022-09-10T15:01:30.308Z,100506.88
2022-09-10T15:03:57.336Z,100489.31
2022-09-10T15:06:26.533Z,100513.41
2022-09-10T15:08:55.965Z,100525.03
2022-09-10T15:11:27.803Z,100491.84
2022-09-10T15:13:55.998Z,100487.59
2022-09-10T15:16:23.263Z,100498.97
2022-09-10T15:18:49.808Z,100498.13
2022-09-10T15:21:16.434Z,100507.94
2022-09-10T15:23:44.349Z,100515.22
2022-09-10T15:26:13.677Z,100523.03
2022-09-10T15:28:41.093Z,100521.69
2022-09-10T15:31:07.880Z,100511.06
2022-09-10T15:33:34.538Z,100508.97
2022-09-10T15:36:01.830Z,100525.72
2022-09-10T15:38:28.213Z,100449.75
2022-09-10T15:41:06.797Z,100548.56
2022-09-10T15:43:37.548Z,100541.63
2022-09-10T15:46:08.940Z,100541.47
2022-09-10T15:48:36.285Z,100470.66
2022-09-10T15:51:05.985Z,100531.19
2022-09-10T15:53:36.233Z,100444.25
2022-09-10T15:56:04.413Z,100535.72
2022-09-10T15:58:31.317Z,100530.59
2022-09-10T16:01:05.750Z,100542.19
2022-09-10T16:03:32.282Z,100498.16
2022-09-10T16:06:09.561Z,100479.63
2022-09-10T16:08:36.175Z,100493.53
2022-09-10T16:11:11.656Z,100462.09
2022-09-10T16:13:39.678Z,100561.13
2022-09-10T16:16:08.677Z,100555.59
2022-09-10T16:18:35.859Z,100573.47
2022-09-10T16:21:09.225Z,100579.94
2022-09-10T16:23:37.074Z,100474.38
2022-09-10T16:26:05.865Z,100579.94
2022-09-10T16:28:33.567Z,100552.38
2022-09-10T16:31:34.215Z,100558.47
2022-09-10T16:34:03.395Z,100534.94
2022-09-10T16:36:32.932Z,100567.50
2022-09-10T16:39:03.408Z,100572.34
2022-09-10T16:41:30.337Z,100492.31
2022-09-10T16:43:59.173Z,100580.34
2022-09-10T16:46:27.847Z,100580.34
2022-09-10T16:48:55.183Z,100587.44
2022-09-10T16:51:24.211Z,100590.25
2022-09-10T16:53:57.146Z,100583.75
2022-09-10T16:56:25.277Z,100580.13
2022-09-10T16:58:51.886Z,100584.84
2022-09-10T17:01:18.802Z,100593.22
2022-09-10T17:03:49.802Z,100591.97
2022-09-10T17:06:18.257Z,100598.97
2022-09-10T17:08:45.579Z,100583.13
2022-09-10T17:11:14.190Z,100610.88
2022-09-10T17:13:41.567Z,100613.72
2022-09-10T17:16:16.965Z,100627.75
2022-09-10T17:18:44.874Z,100629.66
2022-09-10T17:21:11.633Z,100630.81
2022-09-10T17:23:37.959Z,100636.06
2022-09-10T17:26:08.853Z,100627.16
2022-09-10T17:28:38.744Z,100643.69
2022-09-10T17:31:05.810Z,100599.81
2022-09-10T17:33:33.737Z,100604.97
2022-09-10T17:36:03.999Z,100604.28
2022-09-10T17:38:33.148Z,100657.47
2022-09-10T17:41:03.446Z,100655.78
2022-09-10T17:43:35.290Z,100641.59
2022-09-10T17:46:07.135Z,100658.94
2022-09-10T17:48:35.754Z,100669.84
2022-09-10T17:51:02.552Z,100668.59
2022-09-10T17:53:28.950Z,100627.50
2022-09-10T17:56:02.099Z,100652.56
2022-09-10T17:58:28.578Z,100553.34
2022-09-10T18:00:58.233Z,100504.22
2022-09-10T18:03:24.595Z,100687.69
2022-09-10T18:05:51.027Z,100669.72
2022-09-10T18:08:17.693Z,100688.50
2022-09-10T18:10:45.212Z,100672.44
2022-09-10T18:13:11.995Z,100659.91
2022-09-10T18:15:47.755Z,100646.22
2022-09-10T18:18:14.134Z,100685.88
2022-09-10T18:20:40.863Z,100683.72
2022-09-10T18:23:07.255Z,100699.31
2022-09-10T18:25:33.808Z,100697.72
2022-09-10T18:28:01.430Z,100711.75
2022-09-10T18:30:28.335Z,100720.34
2022-09-10T18:32:54.727Z,100639.28
2022-09-10T18:35:21.297Z,100720.66
2022-09-10T18:37:49.976Z,100673.22
2022-09-10T18:40:16.592Z,100644.44
2022-09-10T18:42:46.626Z,100737.09
2022-09-10T18:45:13.725Z,100748.91
2022-09-10T18:47:47.159Z,100754.22
2022-09-10T18:50:13.600Z,100758.31
2022-09-10T18:52:39.989Z,100757.28
2022-09-10T18:55:06.958Z,100686.84
2022-09-10T18:57:33.313Z,100729.34
2022-09-10T19:00:00.374Z,100724.91
2022-09-10T19:02:26.850Z,100694.94
2022-09-10T19:05:11.688Z,100683.75
2022-09-10T19:07:38.649Z,100680.09
2022-09-10T19:10:07.011Z,100764.13
2022-09-10T19:12:33.659Z,100759.38
2022-09-10T19:15:00.396Z,100701.19
2022-09-10T19:17:26.737Z,100753.06
2022-09-10T19:19:53.051Z,100782.69
2022-09-10T19:22:19.414Z,100790.47
2022-09-10T19:24:55.877Z,100777.06
2022-09-10T19:27:23.794Z,100740.63
2022-09-10T19:29:50.477Z,100809.66
2022-09-10T19:32:19.325Z,100816.91
2022-09-10T19:34:45.655Z,100766.25
2022-09-10T19:37:12.865Z,100818.88
2022-09-10T19:39:39.402Z,100749.13
2022-09-10T19:42:06.712Z,100702.47
2022-09-10T19:44:33.594Z,100820.28
2022-09-10T19:47:00.089Z,100734.19
2022-09-10T19:49:26.532Z,100826.25
2022-09-10T19:51:53.985Z,100774.16
2022-09-10T19:54:21.307Z,100665.31
2022-09-10T19:56:47.681Z,100824.63
2022-09-10T19:59:14.486Z,100808.25
2022-09-10T20:01:43.651Z,100831.19
2022-09-10T20:04:11.577Z,100836.03
2022-09-10T20:06:38.864Z,100833.84
2022-09-10T20:09:06.843Z,100781.66
2022-09-10T20:11:35.152Z,100829.03
2022-09-10T20:14:07.877Z,100854.13
2022-09-10T20:16:42.795Z,100831.44
2022-09-10T20:19:11.974Z,100839.72
2022-09-10T20:21:39.193Z,100852.41
2022-09-10T20:24:07.240Z,100755.78
2022-09-10T20:26:37.325Z,100852.56
2022-09-10T20:29:07.396Z,100833.84
2022-09-10T20:31:36.330Z,100861.16
2022-09-10T20:34:05.461Z,100838.22
2022-09-10T20:36:32.907Z,100844.88
2022-09-10T20:38:59.258Z,100828.28
2022-09-10T20:41:30.113Z,100806.44
2022-09-10T20:43:58.578Z,100873.47
2022-09-10T20:46:30.178Z,100840.50
2022-09-10T20:49:04.541Z,100731.22
2022-09-10T20:51:32.703Z,100872.91
2022-09-10T20:53:59.257Z,100761.19
2022-09-10T20:56:26.199Z,100871.13
2022-09-10T20:58:52.744Z,100865.94
2022-09-10T21:01:24.422Z,100753.34
2022-09-10T21:03:53.459Z,100871.59
2022-09-10T21:06:23.392Z,100877.38
2022-09-10T21:08:51.403Z,100878.63
2022-09-10T21:11:20.719Z,100870.19
2022-09-10T21:13:49.585Z,100885.31
2022-09-10T21:16:26.844Z,100839.41
2022-09-10T21:18:57.400Z,100898.66
2022-09-10T21:21:26.248Z,100898.38
2022-09-10T21:23:57.317Z,100799.53
2022-09-10T21:26:26.630Z,100911.38
2022-09-10T21:28:56.099Z,100812.56
2022-09-10T21:31:23.168Z,100904.22
2022-09-10T21:33:49.983Z,100895.88
2022-09-10T21:36:20.773Z,100909.81
2022-09-10T21:38:53.124Z,100899.56
2022-09-10T21:41:26.415Z,100892.34
2022-09-10T21:43:52.795Z,100787.97
2022-09-10T21:46:19.766Z,100874.72
2022-09-10T21:48:46.307Z,100902.19
2022-09-10T21:51:14.950Z,100841.22
2022-09-10T21:53:42.933Z,100912.03
2022-09-10T21:56:14.830Z,100805.19
2022-09-10T21:58:42.988Z,100820.78
2022-09-10T22:01:15.036Z,100849.09
2022-09-10T22:03:41.752Z,100928.22
2022-09-10T22:06:12.827Z,100882.66
2022-09-10T22:08:41.825Z,100842.53
2022-09-10T22:11:14.377Z,100887.50
2022-09-10T22:13:42.226Z,100920.88
2022-09-10T22:16:12.399Z,100922.59
2022-09-10T22:18:39.990Z,100807.97
2022-09-10T22:21:06.742Z,100931.97
2022-09-10T22:23:35.419Z,100849.03
2022-09-10T22:26:13.539Z,100928.97
2022-09-10T22:28:40.558Z,100892.91
2022-09-10T22:31:16.245Z,100873.91
2022-09-10T22:33:44.815Z,100937.03
2022-09-10T22:36:16.123Z,100943.44
2022-09-10T22:38:43.341Z,100945.47
2022-09-10T22:41:10.597Z,100953.13
2022-09-10T22:43:38.357Z,100947.75
2022-09-10T22:46:07.027Z,100951.09
2022-09-10T22:48:38.056Z,100961.53
2022-09-10T22:51:06.523Z,100943.69
2022-09-10T22:53:34.220Z,100920.41
2022-09-10T22:56:02.142Z,100914.56
2022-09-10T22:58:28.655Z,100919.28
2022-09-10T23:00:55.956Z,100913.78
2022-09-10T23:03:22.580Z,100948.19
2022-09-10T23:05:49.382Z,100934.44
2022-09-10T23:08:16.925Z,100952.06
2022-09-10T23:10:43.260Z,100968.59
2022-09-10T23:13:09.611Z,100935.03
2022-09-10T23:15:36.354Z,100960.00
2022-09-10T23:18:02.854Z,100964.66
2022-09-10T23:20:29.274Z,100971.38
2022-09-10T23:22:55.606Z,100971.53
2022-09-10T23:25:21.964Z,100969.94
2022-09-10T23:27:51.033Z,100969.53
2022-09-10T23:30:17.853Z,100908.09
2022-09-10T23:32:44.255Z,100893.53
2022-09-10T23:35:10.593Z,100866.78
2022-09-10T23:37:37.074Z,100957.94
2022-09-10T23:40:03.905Z,100959.81
2022-09-10T23:42:31.200Z,100961.66
2022-09-10T23:44:57.605Z,100872.56
2022-09-10T23:47:23.942Z,100973.88
2022-09-10T23:49:50.345Z,100981.81
2022-09-10T23:52:17.555Z,100984.09
2022-09-10T23:54:44.036Z,100974.94
2022-09-10T23:57:10.880Z,100893.03
2022-09-10T23:59:37.205Z,100990.81
